עמוד ראשי
METAR-TAF:

METAR-TAF

שדות תעופה :

Egegik, אלסקה, ארצות הברית

קו רוחב: 58-11-07N, קו אורך: 157-23-08W, גובה: 28מטר

תצפית מזג אוויר נוכחית

הדו"ח נערך לפני 26דקות, בשעה 10:56 UTC
רוח רגועה
טמפרטורת 8 צלסיוס
לחות 100%
לחץ 1014 hPa
ראות: 16.1קילומטר
מעונן בגובה 10000רגל

METAR: PAII 211056Z AUTO 00000KT 10SM OVC100 08/08 A2994 RMK AO2 SLP134 T00830078

זמן: 03:22 (11:22 UTC)


TAF: חסר

תצפיות ותחזיות מזג אוויר לגבי יותר מ- 4,000 שדות תעופה ברחבי העולם. דוחות METAR ו- TAF.

התחנות הזמינות מסומנות בנקודות צהובות ואדומות על גבי המפה.

העבר את העכבר לנקודה הצבעונית על מנת לראות את שם התחנה.

לאחר מכן, לחץ כדי לראות את תוכן ואת תחזיות מזג האוויר.

כדי לשנות את המפה: לחץ על הכפתורים הירוקים עם הפלוס השחור כדי להתקרב; על הכפתור הירוק עם המקף כדי להתרחק; או בחיצים הירוקים למפות סמוכות.


METAR-TAF: